Philadelphia, Pennsylvania
Traffic Map
Current Weather Conditions
Philadelphia, Pennsylvania
Scattered Clouds
Scattered Clouds
27°
Feels Like: 28°
Wind Chill: 27° Ceiling: Unl
Heat Index: 28° Visibility: 10mi
Dew Point: 19° Wind: 5mph
Humidity: 60% Direction: 210° (SSW)
Pressure: 30.18in Gusts: 0mph
Raw Report DataKPHL 221454Z 21004KT 10SM SCT029 27/19 A3018 RMK AO2 SLP220 T02720189 56008
Traffic Incident Summary
Active as of:
Severity:
Category:
InformationThere was an issue retrieving the traffic information for this location. Please try a different location or try again shortly.
Advertisements
Track Severe Weather on mobile